Time;durP1;ratioP1;P1;durP2;ratioP2;P2;SDS_P1;SDS_P2;PMS_P1;PMS_P2;Temp;Humidity;BMP_temperature;BMP_pressure;BME280_temperature;BME280_humidity;BME280_pressure;Samples;Min_cycle;Max_cycle;Signal;HPM_P1;HPM_P2
2021/03/16 00:00:06;;;;;;;20.47;3.70;;;5.80;99.90;;;;;;5007947;28;20205;-61
2021/03/16 00:02:34;;;;;;;23.77;3.63;;;5.80;99.90;;;;;;5022162;28;20190;-61
2021/03/16 00:05:01;;;;;;;26.20;4.63;;;5.80;99.90;;;;;;5006281;28;20213;-60
2021/03/16 00:07:29;;;;;;;27.00;4.20;;;5.80;99.90;;;;;;5021753;28;20198;-61
2021/03/16 00:10:00;;;;;;;23.90;4.90;;;5.80;99.90;;;;;;5008363;28;20194;-61
2021/03/16 00:12:28;;;;;;;26.03;4.83;;;5.90;99.90;;;;;;5003049;28;20250;-61
2021/03/16 00:14:55;;;;;;;33.27;4.10;;;5.90;99.90;;;;;;5008133;28;20641;-61
2021/03/16 00:17:23;;;;;;;25.87;4.63;;;5.90;99.90;;;;;;5008992;28;20195;-61
2021/03/16 00:19:50;;;;;;;23.00;4.00;;;5.90;99.90;;;;;;5008722;28;20200;-61
2021/03/16 00:22:18;;;;;;;26.83;4.40;;;5.80;99.90;;;;;;5007273;28;20190;-60
2021/03/16 00:24:45;;;;;;;20.20;3.20;;;5.80;99.90;;;;;;5006995;28;20206;-61
2021/03/16 00:27:14;;;;;;;31.87;4.63;;;5.80;99.90;;;;;;5005723;28;20201;-60
2021/03/16 00:29:41;;;;;;;22.57;3.73;;;5.80;99.90;;;;;;5009169;28;20252;-61
2021/03/16 00:32:11;;;;;;;28.83;4.33;;;5.70;99.90;;;;;;5008379;28;20228;-61
2021/03/16 00:34:38;;;;;;;22.67;3.77;;;5.70;99.90;;;;;;5004109;28;20308;-61
2021/03/16 00:37:06;;;;;;;25.63;3.83;;;5.80;99.90;;;;;;5007677;28;20222;-61
2021/03/16 00:39:33;;;;;;;18.87;3.23;;;5.80;99.90;;;;;;5006042;28;20836;-60
2021/03/16 00:42:01;;;;;;;21.07;3.37;;;5.80;99.90;;;;;;5007882;28;20202;-61
2021/03/16 00:44:31;;;;;;;22.63;3.87;;;5.80;99.90;;;;;;5005293;28;20194;-61
2021/03/16 00:46:59;;;;;;;22.83;3.60;;;5.80;99.90;;;;;;5008176;28;20321;-61
2021/03/16 00:49:27;;;;;;;14.20;3.70;;;5.80;99.90;;;;;;5007242;28;20216;-60
2021/03/16 00:51:55;;;;;;;21.13;4.23;;;5.80;99.90;;;;;;5005339;28;20206;-60
2021/03/16 00:54:23;;;;;;;15.40;3.37;;;5.80;99.90;;;;;;5008416;28;20288;-61
2021/03/16 00:56:50;;;;;;;24.63;3.73;;;5.90;99.90;;;;;;5007445;28;20198;-61
2021/03/16 00:59:17;;;;;;;21.23;3.30;;;5.90;99.90;;;;;;5006755;28;20218;-61
2021/03/16 01:01:46;;;;;;;18.17;3.33;;;5.80;99.90;;;;;;5006639;28;20186;-61
2021/03/16 01:04:14;;;;;;;23.73;3.97;;;5.80;99.90;;;;;;5009440;28;20225;-61
2021/03/16 01:06:41;;;;;;;19.53;3.50;;;5.80;99.90;;;;;;5006807;28;20719;-61
2021/03/16 01:09:09;;;;;;;21.20;3.97;;;5.90;99.90;;;;;;5007212;28;20788;-61
2021/03/16 01:11:37;;;;;;;19.03;3.07;;;5.90;99.90;;;;;;5009483;28;20198;-61
2021/03/16 01:14:05;;;;;;;17.43;3.70;;;5.90;99.90;;;;;;5007962;28;20209;-60
2021/03/16 01:16:33;;;;;;;30.07;3.47;;;5.80;99.90;;;;;;5009430;28;20234;-61
2021/03/16 01:19:01;;;;;;;26.00;3.57;;;5.90;99.90;;;;;;5007546;28;20194;-60
2021/03/16 01:21:29;;;;;;;16.47;3.23;;;5.90;99.90;;;;;;5008452;28;20205;-61
2021/03/16 01:23:56;;;;;;;23.00;3.80;;;5.90;99.90;;;;;;5006086;28;20277;-61
2021/03/16 01:26:24;;;;;;;23.07;4.87;;;5.80;99.90;;;;;;5007772;28;20618;-61
2021/03/16 01:28:51;;;;;;;17.00;3.23;;;5.80;99.90;;;;;;5007113;28;20209;-61
2021/03/16 01:31:19;;;;;;;17.93;3.87;;;5.80;99.90;;;;;;5003135;28;20197;-60
2021/03/16 01:33:46;;;;;;;18.33;3.83;;;5.80;99.90;;;;;;5006467;28;20288;-61
2021/03/16 01:36:15;;;;;;;25.07;3.83;;;5.80;99.90;;;;;;5006906;28;20234;-61
2021/03/16 01:38:42;;;;;;;29.63;3.77;;;5.80;99.90;;;;;;5006989;28;20249;-61
2021/03/16 01:41:10;;;;;;;20.03;3.40;;;5.80;99.90;;;;;;5020008;28;20291;-61
2021/03/16 01:43:40;;;;;;;21.80;3.93;;;5.80;99.90;;;;;;5007020;28;20714;-61
2021/03/16 01:46:08;;;;;;;27.63;4.80;;;5.80;99.90;;;;;;5007644;28;20646;-61
2021/03/16 01:48:38;;;;;;;16.27;3.20;;;5.70;99.90;;;;;;5006714;28;20198;-61
2021/03/16 01:51:08;;;;;;;22.37;3.80;;;5.70;99.90;;;;;;5006793;28;20289;-60
2021/03/16 01:53:38;;;;;;;14.40;3.67;;;5.70;99.90;;;;;;5006907;28;20230;-61
2021/03/16 01:56:23;;;;;;;17.27;3.70;;;5.70;99.90;;;;;;5004365;28;20194;-60
2021/03/16 01:58:55;;;;;;;16.83;3.83;;;5.60;99.90;;;;;;5012240;28;20190;-61
2021/03/16 02:01:23;;;;;;;16.20;3.63;;;5.60;99.90;;;;;;5003502;28;20197;-61
2021/03/16 02:03:52;;;;;;;16.57;3.87;;;5.60;99.90;;;;;;5027092;28;20715;-61
2021/03/16 02:06:30;;;;;;;20.37;3.50;;;5.60;99.90;;;;;;5010344;28;20661;-61
2021/03/16 02:09:06;;;;;;;19.63;4.30;;;5.60;99.90;;;;;;5010663;28;20248;-61
2021/03/16 02:11:41;;;;;;;20.07;3.53;;;5.60;99.90;;;;;;5009813;28;20244;-61
2021/03/16 02:14:14;;;;;;;15.23;3.30;;;5.60;99.90;;;;;;5010422;28;20245;-61
2021/03/16 02:16:49;;;;;;;14.80;4.20;;;5.60;99.90;;;;;;5010878;28;20296;-61
2021/03/16 02:19:29;;;;;;;24.23;4.13;;;5.60;99.90;;;;;;5007504;28;20224;-61
2021/03/16 02:22:00;;;;;;;24.20;3.90;;;5.60;99.90;;;;;;5010482;28;20672;-61
2021/03/16 02:24:51;;;;;;;17.50;3.90;;;5.60;99.90;;;;;;5006651;28;20186;-61
2021/03/16 02:27:19;;;;;;;17.83;4.27;;;5.70;99.90;;;;;;5002330;28;20317;-61
2021/03/16 02:29:51;;;;;;;22.13;3.57;;;5.70;99.90;;;;;;5005706;28;20213;-60
2021/03/16 02:32:23;;;;;;;15.87;3.50;;;5.70;99.90;;;;;;5009676;28;20226;-61
2021/03/16 02:34:56;;;;;;;18.63;3.33;;;5.70;99.90;;;;;;5009949;28;20311;-61
2021/03/16 02:37:26;;;;;;;18.03;3.63;;;5.70;99.90;;;;;;5009547;28;20273;-61
2021/03/16 02:39:54;;;;;;;25.93;3.70;;;5.70;99.90;;;;;;5010529;28;20256;-61
2021/03/16 02:42:25;;;;;;;24.57;4.10;;;5.70;99.90;;;;;;5010897;28;20191;-61
2021/03/16 02:44:54;;;;;;;17.53;3.20;;;5.70;99.90;;;;;;5011278;28;20178;-61
2021/03/16 02:47:22;;;;;;;14.97;3.53;;;5.70;99.90;;;;;;5011185;28;20238;-61
2021/03/16 02:49:50;;;;;;;26.07;3.40;;;5.70;99.90;;;;;;5009826;28;20584;-61
2021/03/16 02:52:19;;;;;;;19.33;3.37;;;5.60;99.90;;;;;;5024978;28;20474;-61
2021/03/16 02:54:48;;;;;;;18.67;3.57;;;5.70;99.90;;;;;;5010347;28;20228;-61
2021/03/16 02:57:17;;;;;;;16.63;3.67;;;5.70;99.90;;;;;;5008668;28;20725;-60
2021/03/16 02:59:48;;;;;;;13.90;3.10;;;5.70;99.90;;;;;;5006576;28;20676;-61
2021/03/16 03:02:17;;;;;;;17.57;3.43;;;5.60;99.90;;;;;;5011169;28;20194;-61
2021/03/16 03:04:47;;;;;;;18.07;3.40;;;5.60;99.90;;;;;;5009444;28;20838;-61
2021/03/16 03:07:15;;;;;;;16.77;3.50;;;5.60;99.90;;;;;;5009091;28;20604;-61
2021/03/16 03:09:43;;;;;;;13.83;2.70;;;5.70;99.90;;;;;;5007431;28;20723;-61
2021/03/16 03:12:10;;;;;;;16.90;3.47;;;5.70;99.90;;;;;;5009928;28;20272;-61
2021/03/16 03:14:39;;;;;;;16.67;3.60;;;5.70;99.90;;;;;;5010180;28;20580;-60
2021/03/16 03:17:09;;;;;;;14.17;3.30;;;5.60;99.90;;;;;;5009986;28;20281;-61
2021/03/16 03:19:38;;;;;;;15.30;3.27;;;5.60;99.90;;;;;;5010832;28;20233;-61
2021/03/16 03:22:11;;;;;;;15.40;3.17;;;5.70;99.90;;;;;;5009965;28;20299;-61
2021/03/16 03:24:45;;;;;;;17.47;3.10;;;5.60;99.90;;;;;;5010318;28;20194;-61
2021/03/16 03:27:31;;;;;;;15.33;3.10;;;5.60;99.90;;;;;;5007338;28;20256;-61
2021/03/16 03:30:01;;;;;;;18.50;3.50;;;5.60;99.90;;;;;;5023505;28;20274;-61
2021/03/16 03:32:30;;;;;;;12.73;3.00;;;5.50;99.90;;;;;;5010324;28;20252;-61
2021/03/16 03:35:02;;;;;;;9.37;2.97;;;5.50;99.90;;;;;;5008235;28;20214;-60
2021/03/16 03:37:31;;;;;;;15.87;3.23;;;5.50;99.90;;;;;;5010986;28;20687;-61
2021/03/16 03:39:59;;;;;;;10.83;2.90;;;5.40;99.90;;;;;;5006801;28;20198;-61
2021/03/16 03:42:28;;;;;;;13.00;3.10;;;5.40;99.90;;;;;;5007297;28;20297;-61
2021/03/16 03:44:58;;;;;;;11.67;2.87;;;5.30;99.90;;;;;;5007963;28;20194;-61
2021/03/16 03:47:26;;;;;;;14.17;2.73;;;5.30;99.90;;;;;;5010286;28;20661;-60
2021/03/16 03:49:55;;;;;;;23.80;3.30;;;5.30;99.90;;;;;;5024539;28;20194;-60
2021/03/16 03:52:24;;;;;;;18.10;3.17;;;5.20;99.90;;;;;;5008230;28;20305;-61
2021/03/16 03:54:51;;;;;;;11.30;3.00;;;5.20;99.90;;;;;;5008797;28;20341;-61
2021/03/16 03:57:20;;;;;;;14.93;2.97;;;5.20;99.90;;;;;;5008661;28;20638;-61
2021/03/16 03:59:48;;;;;;;10.20;3.10;;;5.20;99.90;;;;;;5007262;28;20210;-60
2021/03/16 04:02:16;;;;;;;20.33;3.63;;;5.30;99.90;;;;;;5010096;28;20198;-60
2021/03/16 04:04:44;;;;;;;12.57;3.37;;;5.30;99.90;;;;;;5008042;28;20201;-61
2021/03/16 04:07:14;;;;;;;21.40;4.40;;;5.30;99.90;;;;;;4999635;28;20285;-61
2021/03/16 04:09:43;;;;;;;14.33;3.23;;;5.30;99.90;;;;;;5009041;28;20229;-61
2021/03/16 04:12:11;;;;;;;17.70;3.57;;;5.30;99.90;;;;;;5006281;28;20665;-60
2021/03/16 04:14:39;;;;;;;19.30;3.40;;;5.30;99.90;;;;;;5000638;28;20297;-61
2021/03/16 04:17:07;;;;;;;10.53;2.73;;;5.30;99.90;;;;;;5008805;28;20279;-61
2021/03/16 04:19:36;;;;;;;17.20;3.27;;;5.30;99.90;;;;;;5008700;28;20197;-61
2021/03/16 04:22:04;;;;;;;11.93;3.40;;;5.30;99.90;;;;;;5009608;28;20302;-61
2021/03/16 04:24:34;;;;;;;16.80;3.43;;;5.30;99.90;;;;;;5009014;28;20205;-60
2021/03/16 04:27:05;;;;;;;13.57;3.50;;;5.30;99.90;;;;;;5007443;28;20297;-61
2021/03/16 04:29:32;;;;;;;14.63;3.27;;;5.30;99.90;;;;;;5002229;28;20229;-60
2021/03/16 04:31:59;;;;;;;15.60;3.10;;;5.30;99.90;;;;;;5009078;28;20186;-61
2021/03/16 04:34:28;;;;;;;21.37;3.33;;;5.30;99.90;;;;;;5008491;28;20218;-61
2021/03/16 04:36:55;;;;;;;17.47;3.67;;;5.30;99.90;;;;;;5003823;28;20608;-60
2021/03/16 04:39:23;;;;;;;18.83;3.43;;;5.30;99.90;;;;;;5009216;28;20198;-61
2021/03/16 04:41:50;;;;;;;12.33;3.10;;;5.30;99.90;;;;;;5006691;28;20253;-61
2021/03/16 04:44:19;;;;;;;12.17;3.50;;;5.30;99.90;;;;;;5008195;28;20288;-61
2021/03/16 04:46:46;;;;;;;20.10;3.80;;;5.30;99.90;;;;;;5006903;28;20204;-61
2021/03/16 04:49:14;;;;;;;18.30;4.07;;;5.30;99.90;;;;;;5007104;28;20324;-61
2021/03/16 04:51:41;;;;;;;10.97;3.27;;;5.30;99.90;;;;;;5008407;28;20897;-61
2021/03/16 04:54:09;;;;;;;16.13;3.93;;;5.30;99.90;;;;;;5008477;28;20579;-61
2021/03/16 04:56:37;;;;;;;10.20;3.47;;;5.30;99.90;;;;;;5006358;28;20293;-61
2021/03/16 04:59:04;;;;;;;15.13;3.40;;;5.30;99.90;;;;;;5007987;28;20295;-61
2021/03/16 05:01:32;;;;;;;9.27;3.37;;;5.30;99.90;;;;;;5007533;28;20206;-60
2021/03/16 05:04:00;;;;;;;16.77;3.63;;;5.30;99.90;;;;;;5008072;28;20202;-61
2021/03/16 05:06:28;;;;;;;18.47;3.73;;;5.20;99.90;;;;;;4998865;28;20313;-61
2021/03/16 05:08:56;;;;;;;21.97;3.67;;;5.20;99.90;;;;;;5007629;28;20190;-61
2021/03/16 05:11:24;;;;;;;19.57;3.83;;;5.20;99.90;;;;;;5007531;28;20233;-61
2021/03/16 05:13:52;;;;;;;25.23;4.40;;;5.20;99.90;;;;;;5004891;28;20230;-61
2021/03/16 05:16:20;;;;;;;17.13;4.17;;;5.20;99.90;;;;;;5006122;28;20263;-61
2021/03/16 05:18:49;;;;;;;17.70;3.93;;;5.10;99.90;;;;;;5001553;28;20190;-61
2021/03/16 05:21:17;;;;;;;21.07;3.77;;;5.20;99.90;;;;;;5007726;28;20230;-60
2021/03/16 05:23:44;;;;;;;16.87;4.10;;;5.10;99.90;;;;;;5007911;28;20285;-61
2021/03/16 05:26:12;;;;;;;21.17;4.20;;;5.20;99.90;;;;;;5005762;28;20293;-61
2021/03/16 05:28:51;;;;;;;15.80;3.70;;;5.20;99.90;;;;;;5008704;28;20611;-61
2021/03/16 05:31:18;;;;;;;20.47;4.27;;;5.20;99.90;;;;;;5012103;28;20206;-61
2021/03/16 05:33:46;;;;;;;13.57;3.60;;;5.20;99.90;;;;;;5011195;28;20289;-61
2021/03/16 05:36:14;;;;;;;18.47;3.90;;;5.20;99.90;;;;;;5011171;28;20688;-61
2021/03/16 05:38:42;;;;;;;16.80;3.87;;;5.30;99.90;;;;;;5010372;28;21099;-61
2021/03/16 05:41:10;;;;;;;20.83;4.93;;;5.30;99.90;;;;;;5004346;28;20292;-60
2021/03/16 05:43:38;;;;;;;18.17;4.10;;;5.20;99.90;;;;;;5011002;28;20657;-61
2021/03/16 05:46:05;;;;;;;17.37;4.27;;;5.30;99.90;;;;;;5010813;28;20200;-61
2021/03/16 05:48:36;;;;;;;19.13;3.83;;;5.20;99.90;;;;;;5009155;28;20232;-61
2021/03/16 05:51:04;;;;;;;23.00;5.43;;;5.20;99.90;;;;;;5010011;28;20192;-61
2021/03/16 05:53:33;;;;;;;20.13;5.40;;;5.30;99.90;;;;;;5013274;28;20341;-61
2021/03/16 05:56:01;;;;;;;15.17;4.07;;;5.20;99.90;;;;;;5009845;28;20665;-61
2021/03/16 05:58:29;;;;;;;17.43;5.30;;;5.20;99.90;;;;;;5011366;28;20280;-61
2021/03/16 06:00:56;;;;;;;22.07;7.07;;;5.20;99.90;;;;;;5011158;28;20198;-61
2021/03/16 06:03:24;;;;;;;20.70;6.57;;;5.20;99.90;;;;;;5010390;28;20245;-61
2021/03/16 06:05:51;;;;;;;15.70;4.93;;;5.20;99.90;;;;;;5011467;28;20225;-61
2021/03/16 06:08:19;;;;;;;36.27;9.07;;;5.20;99.90;;;;;;5026740;28;20221;-61
2021/03/16 06:10:47;;;;;;;34.97;10.50;;;5.30;99.90;;;;;;5009794;28;20362;-61
2021/03/16 06:13:16;;;;;;;39.37;10.67;;;5.30;99.90;;;;;;5011397;28;20705;-61
2021/03/16 06:15:43;;;;;;;61.67;17.17;;;5.30;99.90;;;;;;5010531;28;20333;-61
2021/03/16 06:18:11;;;;;;;61.47;16.30;;;5.20;99.90;;;;;;5012056;28;20732;-61
2021/03/16 06:20:39;;;;;;;37.00;10.53;;;5.20;99.90;;;;;;5012650;28;20196;-61
2021/03/16 06:23:08;;;;;;;30.80;8.50;;;5.20;99.90;;;;;;5005860;28;20194;-61
2021/03/16 06:25:37;;;;;;;14.63;5.67;;;5.30;99.90;;;;;;5006077;28;20289;-61
2021/03/16 06:28:07;;;;;;;21.77;6.10;;;5.30;99.90;;;;;;5008611;28;20292;-61
2021/03/16 06:30:35;;;;;;;21.50;5.07;;;5.30;99.90;;;;;;5005537;28;20194;-61
2021/03/16 06:33:03;;;;;;;22.70;5.80;;;5.30;99.90;;;;;;5011110;28;20199;-61
2021/03/16 06:35:31;;;;;;;17.50;5.43;;;5.40;99.90;;;;;;5010580;28;20214;-60
2021/03/16 06:38:03;;;;;;;19.77;5.50;;;5.40;99.90;;;;;;5008610;28;20197;-61
2021/03/16 06:40:32;;;;;;;15.30;4.67;;;5.40;99.90;;;;;;5009725;28;20229;-61
2021/03/16 06:43:08;;;;;;;16.90;4.40;;;5.40;99.90;;;;;;5009106;28;20256;-61
2021/03/16 06:45:39;;;;;;;19.67;4.57;;;5.40;99.90;;;;;;5006117;28;20962;-61
2021/03/16 06:48:14;;;;;;;17.60;5.47;;;5.50;99.90;;;;;;5007437;28;20260;-61
2021/03/16 06:50:42;;;;;;;20.73;5.70;;;5.50;99.90;;;;;;5008862;28;20206;-61
2021/03/16 06:53:27;;;;;;;28.33;8.73;;;5.50;99.90;;;;;;5009561;28;20296;-61
2021/03/16 06:56:07;;;;;;;37.53;12.10;;;5.60;99.90;;;;;;5004589;28;20193;-61
2021/03/16 06:58:36;;;;;;;24.90;6.53;;;5.60;99.90;;;;;;5011696;28;20564;-60
2021/03/16 07:01:05;;;;;;;22.40;6.13;;;5.60;99.90;;;;;;5008967;28;20205;-61
2021/03/16 07:03:35;;;;;;;13.50;4.70;;;5.60;99.90;;;;;;5011796;28;20294;-61
2021/03/16 07:06:10;;;;;;;21.73;4.97;;;5.60;99.90;;;;;;5008351;28;20189;-61
2021/03/16 07:08:42;;;;;;;18.30;4.90;;;5.60;99.90;;;;;;5007490;28;20195;-61
2021/03/16 07:11:11;;;;;;;17.90;4.83;;;5.60;99.90;;;;;;5010100;28;20248;-61
2021/03/16 07:13:40;;;;;;;16.57;4.90;;;5.60;99.90;;;;;;5010106;28;20228;-61
2021/03/16 07:16:11;;;;;;;19.97;4.43;;;5.60;99.90;;;;;;5005719;28;20581;-61
2021/03/16 07:18:41;;;;;;;16.73;5.10;;;5.60;99.90;;;;;;5009496;28;20198;-60
2021/03/16 07:21:10;;;;;;;12.70;4.50;;;5.60;99.90;;;;;;5024968;28;20244;-61
2021/03/16 07:23:40;;;;;;;18.80;5.67;;;5.70;99.90;;;;;;5003329;28;20190;-61
2021/03/16 07:26:08;;;;;;;14.17;4.57;;;5.70;99.90;;;;;;5010045;28;20194;-60
2021/03/16 07:28:36;;;;;;;17.67;4.43;;;5.70;99.90;;;;;;5011168;28;20198;-61
2021/03/16 07:31:05;;;;;;;19.70;4.87;;;5.80;99.90;;;;;;5007804;28;20294;-61
2021/03/16 07:33:36;;;;;;;16.70;5.00;;;5.80;99.90;;;;;;5006972;28;20253;-61
2021/03/16 07:36:08;;;;;;;19.43;5.30;;;5.80;99.90;;;;;;5008132;28;20649;-61
2021/03/16 07:38:40;;;;;;;13.30;4.77;;;5.90;99.90;;;;;;5010089;28;20240;-61
2021/03/16 07:41:08;;;;;;;15.90;5.17;;;5.90;99.90;;;;;;5009426;28;20285;-61
2021/03/16 07:43:39;;;;;;;16.80;4.47;;;6.00;99.90;;;;;;5009263;28;20301;-61
2021/03/16 07:46:12;;;;;;;11.77;4.33;;;6.00;99.90;;;;;;5009247;28;20229;-61
2021/03/16 07:48:44;;;;;;;18.47;5.00;;;5.90;99.90;;;;;;5010145;28;20555;-61
2021/03/16 07:51:13;;;;;;;16.23;4.80;;;5.90;99.90;;;;;;5007452;28;20205;-61
2021/03/16 07:53:42;;;;;;;13.07;4.47;;;5.90;99.90;;;;;;5009327;28;20194;-61
2021/03/16 07:56:12;;;;;;;15.43;4.57;;;5.90;99.90;;;;;;5009484;28;20283;-61
2021/03/16 07:58:46;;;;;;;22.47;4.97;;;5.90;99.90;;;;;;5011481;28;20351;-61
2021/03/16 08:01:14;;;;;;;17.03;4.60;;;6.00;99.90;;;;;;5007717;28;20189;-62
2021/03/16 08:03:42;;;;;;;19.77;4.27;;;6.00;99.90;;;;;;5001333;28;20263;-61
2021/03/16 08:06:23;;;;;;;16.70;4.63;;;6.10;99.90;;;;;;5009172;28;20292;-61
2021/03/16 08:08:51;;;;;;;15.00;4.40;;;6.10;99.90;;;;;;5008967;28;20194;-61
2021/03/16 08:11:20;;;;;;;11.73;4.43;;;6.20;99.90;;;;;;5006841;28;20272;-61
2021/03/16 08:13:57;;;;;;;13.70;4.93;;;6.20;99.90;;;;;;5008156;28;20725;-61
2021/03/16 08:16:36;;;;;;;12.73;5.03;;;6.30;99.90;;;;;;5009403;28;20232;-61
2021/03/16 08:19:14;;;;;;;15.70;4.93;;;6.30;99.90;;;;;;5009826;28;20220;-61
2021/03/16 08:21:43;;;;;;;9.83;4.07;;;6.40;99.90;;;;;;5003825;28;20212;-62
2021/03/16 08:24:12;;;;;;;14.03;4.13;;;6.40;99.90;;;;;;5009923;28;20725;-61
2021/03/16 08:26:45;;;;;;;12.10;4.00;;;6.40;99.90;;;;;;5007908;28;20194;-61
2021/03/16 08:29:13;;;;;;;18.03;4.40;;;6.50;99.90;;;;;;5009541;28;20244;-61
2021/03/16 08:31:42;;;;;;;8.23;3.57;;;6.60;99.90;;;;;;5007170;28;20300;-61
2021/03/16 08:34:10;;;;;;;11.23;3.60;;;6.70;99.90;;;;;;5007257;28;20217;-61
2021/03/16 08:36:42;;;;;;;11.30;3.37;;;6.70;99.90;;;;;;5008886;28;20353;-61
2021/03/16 08:39:10;;;;;;;9.37;4.67;;;6.70;99.90;;;;;;5010536;28;20190;-61
2021/03/16 08:41:37;;;;;;;13.50;3.17;;;6.70;99.90;;;;;;5009297;28;20264;-61
2021/03/16 08:44:05;;;;;;;9.33;2.90;;;6.70;99.90;;;;;;5008826;28;20593;-61
2021/03/16 08:46:35;;;;;;;7.70;2.77;;;6.70;99.90;;;;;;5009559;28;20198;-61
2021/03/16 08:49:03;;;;;;;6.83;2.93;;;6.70;99.90;;;;;;5001255;28;20201;-61
2021/03/16 08:51:33;;;;;;;5.67;3.10;;;6.80;99.90;;;;;;5009993;28;20198;-61
2021/03/16 08:54:01;;;;;;;7.77;3.20;;;7.00;99.90;;;;;;5008933;28;20191;-61
2021/03/16 08:56:28;;;;;;;5.83;2.77;;;7.00;99.90;;;;;;5009755;28;20194;-61
2021/03/16 08:59:02;;;;;;;4.73;2.00;;;7.10;99.90;;;;;;5009726;28;20652;-61
2021/03/16 09:01:39;;;;;;;4.70;1.90;;;7.10;99.90;;;;;;5008616;28;20208;-62
2021/03/16 09:04:12;;;;;;;2.13;1.60;;;7.10;99.90;;;;;;5009309;28;20705;-61
2021/03/16 09:06:42;;;;;;;4.23;1.73;;;7.00;99.90;;;;;;5013536;28;20236;-61
2021/03/16 09:09:10;;;;;;;4.77;1.50;;;7.00;99.90;;;;;;5011650;28;20561;-61
2021/03/16 09:11:42;;;;;;;3.83;1.57;;;6.90;99.90;;;;;;5013255;28;20232;-61
2021/03/16 09:14:14;;;;;;;2.83;1.70;;;7.00;99.90;;;;;;5013093;28;20210;-61
2021/03/16 09:16:43;;;;;;;2.83;2.00;;;7.10;99.90;;;;;;5004584;28;20296;-61
2021/03/16 09:19:14;;;;;;;4.43;2.13;;;7.10;99.90;;;;;;5011834;28;20243;-61
2021/03/16 09:21:51;;;;;;;4.33;2.23;;;7.10;99.90;;;;;;5010321;28;20502;-61
2021/03/16 09:24:23;;;;;;;3.17;1.90;;;7.10;99.90;;;;;;5012897;28;20669;-61
2021/03/16 09:26:55;;;;;;;5.30;2.03;;;7.10;99.90;;;;;;5013524;28;20193;-61
2021/03/16 09:29:26;;;;;;;2.23;2.00;;;7.10;99.90;;;;;;5012650;28;20242;-61
2021/03/16 09:32:01;;;;;;;3.30;1.90;;;7.10;99.90;;;;;;5008555;28;20212;-61
2021/03/16 09:34:31;;;;;;;5.07;2.40;;;7.10;99.90;;;;;;5009574;28;20209;-61
2021/03/16 09:37:00;;;;;;;5.67;1.90;;;7.20;99.90;;;;;;5013586;28;20252;-61
2021/03/16 09:39:28;;;;;;;4.40;2.33;;;7.30;99.90;;;;;;5011030;28;20597;-61
2021/03/16 09:41:56;;;;;;;4.67;1.80;;;7.30;99.90;;;;;;5011600;28;20194;-61
2021/03/16 09:44:29;;;;;;;5.10;1.80;;;7.40;99.90;;;;;;5011347;28;20782;-61
2021/03/16 09:46:57;;;;;;;2.83;2.10;;;7.50;99.90;;;;;;5012010;28;20280;-60
2021/03/16 09:49:30;;;;;;;5.60;2.20;;;7.50;99.90;;;;;;5012681;28;20198;-61
2021/03/16 09:52:03;;;;;;;3.73;1.80;;;7.40;99.90;;;;;;5011612;28;20193;-61
2021/03/16 09:54:41;;;;;;;2.53;1.93;;;7.40;99.90;;;;;;5012497;28;20305;-61
2021/03/16 09:57:10;;;;;;;3.40;2.20;;;7.40;99.90;;;;;;5011129;28;20193;-61
2021/03/16 09:59:40;;;;;;;4.00;2.10;;;7.50;99.90;;;;;;5012765;28;20280;-61
2021/03/16 10:02:12;;;;;;;4.77;2.40;;;7.40;99.90;;;;;;5012507;28;20256;-61
2021/03/16 10:04:48;;;;;;;3.73;2.50;;;7.40;99.90;;;;;;5012425;28;20285;-61
2021/03/16 10:07:26;;;;;;;7.33;2.50;;;7.30;99.90;;;;;;5009735;28;20189;-61
2021/03/16 10:09:53;;;;;;;8.23;2.30;;;7.20;99.90;;;;;;5011392;28;20198;-61
2021/03/16 10:12:22;;;;;;;4.80;2.40;;;7.10;99.90;;;;;;5012872;28;20202;-60
2021/03/16 10:14:51;;;;;;;6.33;2.57;;;7.00;99.90;;;;;;5009627;28;20221;-61
2021/03/16 10:17:35;;;;;;;3.73;2.43;;;7.00;99.90;;;;;;5013027;28;20197;-60
2021/03/16 10:20:06;;;;;;;3.70;2.10;;;7.00;99.90;;;;;;5011860;28;20186;-60
2021/03/16 10:22:35;;;;;;;4.23;2.17;;;7.00;99.90;;;;;;5011184;28;20202;-60
2021/03/16 10:25:08;;;;;;;3.20;2.20;;;7.00;99.90;;;;;;5012777;28;20203;-60
2021/03/16 10:27:37;;;;;;;1.83;1.77;;;7.10;99.90;;;;;;5010788;28;20328;-60
2021/03/16 10:30:07;;;;;;;2.33;2.13;;;7.00;99.90;;;;;;5010654;28;20673;-61
2021/03/16 10:32:38;;;;;;;5.30;2.20;;;7.10;99.90;;;;;;5010797;28;20665;-61
2021/03/16 10:35:08;;;;;;;4.40;2.70;;;7.10;99.90;;;;;;5012600;28;20202;-60
2021/03/16 10:37:44;;;;;;;5.03;2.50;;;7.10;99.90;;;;;;5026404;28;20672;-61
2021/03/16 10:40:13;;;;;;;5.13;2.40;;;7.10;99.90;;;;;;5010333;28;20707;-61
2021/03/16 10:42:41;;;;;;;5.73;2.40;;;7.10;99.90;;;;;;5010731;28;20209;-61
2021/03/16 10:45:08;;;;;;;3.37;2.30;;;7.00;99.90;;;;;;5010775;28;20214;-61
2021/03/16 10:47:36;;;;;;;5.33;2.60;;;7.00;99.90;;;;;;5012309;28;20198;-61
2021/03/16 10:50:04;;;;;;;8.03;2.87;;;7.00;99.90;;;;;;5010616;28;20194;-61
2021/03/16 10:52:32;;;;;;;6.93;2.77;;;7.10;99.90;;;;;;5012350;28;20297;-61
2021/03/16 10:55:00;;;;;;;3.30;2.73;;;7.20;99.90;;;;;;5011216;28;20253;-61
2021/03/16 10:57:30;;;;;;;3.60;2.63;;;7.30;99.90;;;;;;5010455;28;20661;-61
2021/03/16 10:59:58;;;;;;;5.10;2.83;;;7.30;99.90;;;;;;5011390;28;20728;-61
2021/03/16 11:02:25;;;;;;;3.83;3.03;;;7.30;99.90;;;;;;5008048;28;20289;-61
2021/03/16 11:04:55;;;;;;;3.47;3.17;;;7.30;99.90;;;;;;5006763;28;20198;-61
2021/03/16 11:07:23;;;;;;;5.33;3.20;;;7.40;99.90;;;;;;5007881;28;20616;-61
2021/03/16 11:09:51;;;;;;;4.23;2.83;;;7.40;99.90;;;;;;5025396;28;20209;-61
2021/03/16 11:12:18;;;;;;;3.23;2.93;;;7.30;99.90;;;;;;5008281;28;20191;-61
2021/03/16 11:14:46;;;;;;;4.80;3.40;;;7.20;99.90;;;;;;5005042;28;20704;-61
2021/03/16 11:17:13;;;;;;;3.17;2.97;;;7.20;99.90;;;;;;5007717;28;20190;-61
2021/03/16 11:19:41;;;;;;;5.30;3.50;;;7.20;99.90;;;;;;5009096;28;20194;-61
2021/03/16 11:22:08;;;;;;;3.20;2.90;;;7.10;99.90;;;;;;5006218;28;20281;-61
2021/03/16 11:24:39;;;;;;;2.70;2.60;;;7.10;99.90;;;;;;5009407;28;20221;-60
2021/03/16 11:27:11;;;;;;;2.40;2.20;;;7.20;99.90;;;;;;5009006;28;20657;-61
2021/03/16 11:29:38;;;;;;;2.63;2.50;;;7.20;99.90;;;;;;5010622;28;20229;-61
2021/03/16 11:32:06;;;;;;;3.10;2.80;;;7.30;99.90;;;;;;5006816;28;20202;-61
2021/03/16 11:34:34;;;;;;;3.23;2.57;;;7.40;99.90;;;;;;5009435;28;20747;-60
2021/03/16 11:37:02;;;;;;;3.20;2.87;;;7.40;99.90;;;;;;5008418;28;20681;-60
2021/03/16 11:39:30;;;;;;;4.23;3.00;;;7.50;99.90;;;;;;5007540;28;20232;-60
2021/03/16 11:41:59;;;;;;;5.20;3.07;;;7.60;99.90;;;;;;5009426;28;20731;-61
2021/03/16 11:44:27;;;;;;;3.40;3.10;;;7.80;99.90;;;;;;5009138;28;20646;-61
2021/03/16 11:46:54;;;;;;;4.67;3.63;;;8.10;99.90;;;;;;5007027;28;20289;-61
2021/03/16 11:49:22;;;;;;;3.90;3.53;;;8.30;99.90;;;;;;5009336;28;20278;-61
2021/03/16 11:51:49;;;;;;;4.00;3.80;;;8.30;99.90;;;;;;5006215;28;20194;-61
2021/03/16 11:54:16;;;;;;;3.60;3.40;;;8.20;99.90;;;;;;5019091;28;20241;-61
2021/03/16 11:56:44;;;;;;;6.87;4.30;;;8.20;99.90;;;;;;5010599;28;20305;-60
2021/03/16 11:59:12;;;;;;;5.20;4.10;;;8.00;99.90;;;;;;5008046;28;20198;-61
2021/03/16 12:01:40;;;;;;;6.87;4.33;;;8.00;99.90;;;;;;5010224;28;20198;-60
2021/03/16 12:04:16;;;;;;;4.80;4.30;;;7.90;99.90;;;;;;5010097;28;20200;-61
2021/03/16 12:06:43;;;;;;;6.27;4.87;;;7.70;99.90;;;;;;5009112;28;20198;-60
2021/03/16 12:09:11;;;;;;;7.93;4.33;;;7.50;99.90;;;;;;4997038;28;20252;-60
2021/03/16 12:11:39;;;;;;;7.53;4.37;;;7.50;99.90;;;;;;5008469;28;20202;-60
2021/03/16 12:14:06;;;;;;;5.00;4.53;;;7.40;99.90;;;;;;5025048;28;20198;-61
2021/03/16 12:16:33;;;;;;;6.07;5.00;;;7.30;99.90;;;;;;5009851;28;20261;-60
2021/03/16 12:19:03;;;;;;;5.30;4.90;;;7.30;99.90;;;;;;5007547;28;20415;-61
2021/03/16 12:21:31;;;;;;;8.33;4.87;;;7.20;99.90;;;;;;5008810;28;20197;-61
2021/03/16 12:24:10;;;;;;;5.03;4.63;;;7.20;99.90;;;;;;5006560;28;20197;-60
2021/03/16 12:26:43;;;;;;;8.83;5.50;;;7.20;99.90;;;;;;5007297;28;20198;-60
2021/03/16 12:29:12;;;;;;;6.30;5.53;;;7.30;99.90;;;;;;5000947;28;20615;-60
2021/03/16 12:31:40;;;;;;;6.07;5.40;;;7.40;99.90;;;;;;5010300;28;20619;-61
2021/03/16 12:34:10;;;;;;;5.47;5.03;;;7.40;99.90;;;;;;5008404;28;20194;-60
2021/03/16 12:36:38;;;;;;;5.83;5.27;;;7.50;99.90;;;;;;5010501;28;20663;-61
2021/03/16 12:39:06;;;;;;;5.20;4.67;;;7.50;99.90;;;;;;5008339;28;20285;-61
2021/03/16 12:41:34;;;;;;;7.17;5.67;;;7.50;99.90;;;;;;5008629;28;20240;-60
2021/03/16 12:44:01;;;;;;;7.07;5.60;;;7.70;99.90;;;;;;5006178;28;20187;-61
2021/03/16 12:46:29;;;;;;;6.03;5.43;;;7.60;99.90;;;;;;5008819;28;20198;-60
2021/03/16 12:48:56;;;;;;;6.57;5.73;;;7.60;99.90;;;;;;5024763;28;20190;-60
2021/03/16 12:51:25;;;;;;;7.83;5.40;;;7.70;99.90;;;;;;5008392;28;20616;-60
2021/03/16 12:53:52;;;;;;;5.83;5.10;;;7.60;99.90;;;;;;5009764;28;20649;-61
2021/03/16 12:56:20;;;;;;;5.70;5.10;;;7.50;99.90;;;;;;5009164;28;20239;-60
2021/03/16 12:58:47;;;;;;;6.03;5.53;;;7.50;99.90;;;;;;5009211;28;20689;-61
2021/03/16 13:01:15;;;;;;;11.17;5.93;;;7.40;99.90;;;;;;5010164;28;20198;-60